sensor_id;sensor_type;location;lat;lon;timestamp;P1;P2;P0
82886;PMS5003;72660;51.258;-2.200;2023-09-19T00:02:21;4;2;
82886;PMS5003;72660;51.258;-2.200;2023-09-19T00:04:47;3;2;
82886;PMS5003;72660;51.258;-2.200;2023-09-19T00:07:12;2;1;
82886;PMS5003;72660;51.258;-2.200;2023-09-19T00:09:37;5;4;
82886;PMS5003;72660;51.258;-2.200;2023-09-19T00:12:04;2;2;
82886;PMS5003;72660;51.258;-2.200;2023-09-19T00:14:28;5;3;
82886;PMS5003;72660;51.258;-2.200;2023-09-19T00:16:54;10;3;
82886;PMS5003;72660;51.258;-2.200;2023-09-19T00:19:19;3;3;
82886;PMS5003;72660;51.258;-2.200;2023-09-19T00:21:45;3;1;
82886;PMS5003;72660;51.258;-2.200;2023-09-19T00:24:10;3;2;
82886;PMS5003;72660;51.258;-2.200;2023-09-19T00:26:35;2;2;
82886;PMS5003;72660;51.258;-2.200;2023-09-19T00:29:00;6;4;
82886;PMS5003;72660;51.258;-2.200;2023-09-19T00:31:26;5;4;
82886;PMS5003;72660;51.258;-2.200;2023-09-19T00:33:51;5;3;
82886;PMS5003;72660;51.258;-2.200;2023-09-19T00:36:16;3;1;
82886;PMS5003;72660;51.258;-2.200;2023-09-19T00:38:42;3;3;
82886;PMS5003;72660;51.258;-2.200;2023-09-19T00:41:07;5;5;
82886;PMS5003;72660;51.258;-2.200;2023-09-19T00:43:32;3;1;
82886;PMS5003;72660;51.258;-2.200;2023-09-19T00:45:57;4;2;
82886;PMS5003;72660;51.258;-2.200;2023-09-19T00:48:23;2;2;
82886;PMS5003;72660;51.258;-2.200;2023-09-19T00:50:48;2;2;
82886;PMS5003;72660;51.258;-2.200;2023-09-19T00:53:14;4;2;
82886;PMS5003;72660;51.258;-2.200;2023-09-19T00:55:39;3;2;
82886;PMS5003;72660;51.258;-2.200;2023-09-19T00:58:04;4;2;
82886;PMS5003;72660;51.258;-2.200;2023-09-19T01:00:30;4;3;
82886;PMS5003;72660;51.258;-2.200;2023-09-19T01:02:55;4;2;
82886;PMS5003;72660;51.258;-2.200;2023-09-19T01:05:20;1;1;
82886;PMS5003;72660;51.258;-2.200;2023-09-19T01:07:45;2;2;
82886;PMS5003;72660;51.258;-2.200;2023-09-19T01:10:11;5;1;
82886;PMS5003;72660;51.258;-2.200;2023-09-19T01:12:39;3;3;
82886;PMS5003;72660;51.258;-2.200;2023-09-19T01:15:03;1;1;
82886;PMS5003;72660;51.258;-2.200;2023-09-19T01:17:27;6;3;
82886;PMS5003;72660;51.258;-2.200;2023-09-19T01:22:20;1;1;
82886;PMS5003;72660;51.258;-2.200;2023-09-19T01:29:36;5;2;
82886;PMS5003;72660;51.258;-2.200;2023-09-19T01:32:01;8;5;
82886;PMS5003;72660;51.258;-2.200;2023-09-19T01:34:25;2;2;
82886;PMS5003;72660;51.258;-2.200;2023-09-19T01:36:50;4;3;
82886;PMS5003;72660;51.258;-2.200;2023-09-19T01:39:15;2;2;
82886;PMS5003;72660;51.258;-2.200;2023-09-19T01:44:06;1;1;
82886;PMS5003;72660;51.258;-2.200;2023-09-19T01:46:33;0;0;
82886;PMS5003;72660;51.258;-2.200;2023-09-19T01:48:59;3;2;
82886;PMS5003;72660;51.258;-2.200;2023-09-19T01:51:34;5;3;
82886;PMS5003;72660;51.258;-2.200;2023-09-19T01:53:50;1;1;
82886;PMS5003;72660;51.258;-2.200;2023-09-19T01:56:19;3;3;
82886;PMS5003;72660;51.258;-2.200;2023-09-19T01:58:39;5;2;
82886;PMS5003;72660;51.258;-2.200;2023-09-19T02:01:03;5;3;
82886;PMS5003;72660;51.258;-2.200;2023-09-19T02:03:29;3;3;
82886;PMS5003;72660;51.258;-2.200;2023-09-19T02:05:54;1;1;
82886;PMS5003;72660;51.258;-2.200;2023-09-19T02:08:19;2;0;
82886;PMS5003;72660;51.258;-2.200;2023-09-19T02:10:44;3;0;
82886;PMS5003;72660;51.258;-2.200;2023-09-19T02:13:10;3;2;
82886;PMS5003;72660;51.258;-2.200;2023-09-19T02:15:35;1;1;
82886;PMS5003;72660;51.258;-2.200;2023-09-19T02:18:00;3;2;
82886;PMS5003;72660;51.258;-2.200;2023-09-19T02:20:26;2;1;
82886;PMS5003;72660;51.258;-2.200;2023-09-19T02:22:51;2;1;
82886;PMS5003;72660;51.258;-2.200;2023-09-19T02:25:16;2;2;
82886;PMS5003;72660;51.258;-2.200;2023-09-19T02:27:42;0;0;
82886;PMS5003;72660;51.258;-2.200;2023-09-19T02:30:07;2;1;
82886;PMS5003;72660;51.258;-2.200;2023-09-19T02:32:33;3;2;
82886;PMS5003;72660;51.258;-2.200;2023-09-19T02:34:58;1;1;
82886;PMS5003;72660;51.258;-2.200;2023-09-19T02:37:23;3;1;
82886;PMS5003;72660;51.258;-2.200;2023-09-19T02:39:49;4;3;
82886;PMS5003;72660;51.258;-2.200;2023-09-19T02:42:14;0;0;
82886;PMS5003;72660;51.258;-2.200;2023-09-19T02:44:39;5;2;
82886;PMS5003;72660;51.258;-2.200;2023-09-19T02:47:04;1;1;
82886;PMS5003;72660;51.258;-2.200;2023-09-19T02:49:30;2;2;
82886;PMS5003;72660;51.258;-2.200;2023-09-19T02:51:55;0;0;
82886;PMS5003;72660;51.258;-2.200;2023-09-19T02:54:20;4;2;
82886;PMS5003;72660;51.258;-2.200;2023-09-19T02:56:45;3;2;
82886;PMS5003;72660;51.258;-2.200;2023-09-19T02:59:11;4;2;
82886;PMS5003;72660;51.258;-2.200;2023-09-19T03:01:37;2;2;
82886;PMS5003;72660;51.258;-2.200;2023-09-19T03:04:02;3;1;
82886;PMS5003;72660;51.258;-2.200;2023-09-19T03:06:27;3;2;
82886;PMS5003;72660;51.258;-2.200;2023-09-19T03:08:52;2;2;
82886;PMS5003;72660;51.258;-2.200;2023-09-19T03:11:18;2;2;
82886;PMS5003;72660;51.258;-2.200;2023-09-19T03:13:43;3;1;
82886;PMS5003;72660;51.258;-2.200;2023-09-19T03:16:08;2;0;
82886;PMS5003;72660;51.258;-2.200;2023-09-19T03:18:34;5;1;
82886;PMS5003;72660;51.258;-2.200;2023-09-19T03:20:59;0;0;
82886;PMS5003;72660;51.258;-2.200;2023-09-19T03:23:24;2;0;
82886;PMS5003;72660;51.258;-2.200;2023-09-19T03:25:49;1;1;
82886;PMS5003;72660;51.258;-2.200;2023-09-19T03:28:15;2;1;
82886;PMS5003;72660;51.258;-2.200;2023-09-19T03:30:40;1;1;
82886;PMS5003;72660;51.258;-2.200;2023-09-19T03:33:05;4;1;
82886;PMS5003;72660;51.258;-2.200;2023-09-19T03:35:30;0;0;
82886;PMS5003;72660;51.258;-2.200;2023-09-19T03:37:56;0;0;
82886;PMS5003;72660;51.258;-2.200;2023-09-19T03:40:21;1;1;
82886;PMS5003;72660;51.258;-2.200;2023-09-19T03:42:46;1;1;
82886;PMS5003;72660;51.258;-2.200;2023-09-19T03:45:11;0;0;
82886;PMS5003;72660;51.258;-2.200;2023-09-19T03:47:37;1;1;
82886;PMS5003;72660;51.258;-2.200;2023-09-19T03:50:02;2;1;
82886;PMS5003;72660;51.258;-2.200;2023-09-19T03:52:27;2;0;
82886;PMS5003;72660;51.258;-2.200;2023-09-19T03:54:53;0;0;
82886;PMS5003;72660;51.258;-2.200;2023-09-19T03:57:18;0;0;
82886;PMS5003;72660;51.258;-2.200;2023-09-19T03:59:43;0;0;
82886;PMS5003;72660;51.258;-2.200;2023-09-19T04:02:08;1;1;
82886;PMS5003;72660;51.258;-2.200;2023-09-19T04:04:34;1;0;
82886;PMS5003;72660;51.258;-2.200;2023-09-19T04:06:59;0;0;
82886;PMS5003;72660;51.258;-2.200;2023-09-19T04:09:24;0;0;
82886;PMS5003;72660;51.258;-2.200;2023-09-19T04:11:49;2;2;
82886;PMS5003;72660;51.258;-2.200;2023-09-19T04:14:15;0;0;
82886;PMS5003;72660;51.258;-2.200;2023-09-19T04:16:40;0;0;
82886;PMS5003;72660;51.258;-2.200;2023-09-19T04:19:05;0;0;
82886;PMS5003;72660;51.258;-2.200;2023-09-19T04:21:30;1;0;
82886;PMS5003;72660;51.258;-2.200;2023-09-19T04:23:56;0;0;
82886;PMS5003;72660;51.258;-2.200;2023-09-19T04:26:21;0;0;
82886;PMS5003;72660;51.258;-2.200;2023-09-19T04:28:46;1;1;
82886;PMS5003;72660;51.258;-2.200;2023-09-19T04:31:12;2;2;
82886;PMS5003;72660;51.258;-2.200;2023-09-19T04:33:37;0;0;
82886;PMS5003;72660;51.258;-2.200;2023-09-19T04:36:02;2;2;
82886;PMS5003;72660;51.258;-2.200;2023-09-19T04:38:27;0;0;
82886;PMS5003;72660;51.258;-2.200;2023-09-19T04:40:56;1;1;
82886;PMS5003;72660;51.258;-2.200;2023-09-19T04:43:18;0;0;
82886;PMS5003;72660;51.258;-2.200;2023-09-19T04:45:43;2;0;
82886;PMS5003;72660;51.258;-2.200;2023-09-19T04:48:08;3;1;
82886;PMS5003;72660;51.258;-2.200;2023-09-19T04:50:33;0;0;
82886;PMS5003;72660;51.258;-2.200;2023-09-19T04:52:59;1;0;
82886;PMS5003;72660;51.258;-2.200;2023-09-19T04:55:24;4;1;
82886;PMS5003;72660;51.258;-2.200;2023-09-19T04:57:50;1;1;
82886;PMS5003;72660;51.258;-2.200;2023-09-19T05:00:15;0;0;
82886;PMS5003;72660;51.258;-2.200;2023-09-19T05:02:40;1;1;
82886;PMS5003;72660;51.258;-2.200;2023-09-19T05:05:06;2;0;
82886;PMS5003;72660;51.258;-2.200;2023-09-19T05:07:30;1;1;
82886;PMS5003;72660;51.258;-2.200;2023-09-19T05:09:56;1;1;
82886;PMS5003;72660;51.258;-2.200;2023-09-19T05:12:21;3;1;
82886;PMS5003;72660;51.258;-2.200;2023-09-19T05:14:46;1;1;
82886;PMS5003;72660;51.258;-2.200;2023-09-19T05:17:13;2;2;
82886;PMS5003;72660;51.258;-2.200;2023-09-19T05:19:37;1;1;
82886;PMS5003;72660;51.258;-2.200;2023-09-19T05:22:02;2;1;
82886;PMS5003;72660;51.258;-2.200;2023-09-19T05:24:27;2;1;
82886;PMS5003;72660;51.258;-2.200;2023-09-19T05:26:53;0;0;
82886;PMS5003;72660;51.258;-2.200;2023-09-19T05:29:18;3;1;
82886;PMS5003;72660;51.258;-2.200;2023-09-19T05:31:43;2;2;
82886;PMS5003;72660;51.258;-2.200;2023-09-19T05:34:08;1;1;
82886;PMS5003;72660;51.258;-2.200;2023-09-19T05:36:34;4;2;
82886;PMS5003;72660;51.258;-2.200;2023-09-19T05:38:59;3;2;
82886;PMS5003;72660;51.258;-2.200;2023-09-19T05:41:24;3;2;
82886;PMS5003;72660;51.258;-2.200;2023-09-19T05:43:49;1;1;
82886;PMS5003;72660;51.258;-2.200;2023-09-19T05:46:15;1;1;
82886;PMS5003;72660;51.258;-2.200;2023-09-19T05:48:40;4;1;
82886;PMS5003;72660;51.258;-2.200;2023-09-19T05:51:05;2;2;
82886;PMS5003;72660;51.258;-2.200;2023-09-19T05:53:30;3;1;
82886;PMS5003;72660;51.258;-2.200;2023-09-19T05:55:56;0;0;
82886;PMS5003;72660;51.258;-2.200;2023-09-19T05:58:21;2;2;
82886;PMS5003;72660;51.258;-2.200;2023-09-19T06:00:46;1;1;
82886;PMS5003;72660;51.258;-2.200;2023-09-19T06:03:11;0;0;
82886;PMS5003;72660;51.258;-2.200;2023-09-19T06:05:37;2;2;
82886;PMS5003;72660;51.258;-2.200;2023-09-19T06:08:02;4;1;
82886;PMS5003;72660;51.258;-2.200;2023-09-19T06:10:28;1;1;
82886;PMS5003;72660;51.258;-2.200;2023-09-19T06:12:53;7;5;
82886;PMS5003;72660;51.258;-2.200;2023-09-19T06:15:18;3;3;
82886;PMS5003;72660;51.258;-2.200;2023-09-19T06:17:45;1;1;
82886;PMS5003;72660;51.258;-2.200;2023-09-19T06:20:08;5;3;
82886;PMS5003;72660;51.258;-2.200;2023-09-19T06:22:34;6;4;
82886;PMS5003;72660;51.258;-2.200;2023-09-19T06:25:00;3;2;
82886;PMS5003;72660;51.258;-2.200;2023-09-19T06:27:25;5;2;
82886;PMS5003;72660;51.258;-2.200;2023-09-19T06:29:50;2;2;
82886;PMS5003;72660;51.258;-2.200;2023-09-19T06:32:16;4;4;
82886;PMS5003;72660;51.258;-2.200;2023-09-19T06:34:41;3;2;
82886;PMS5003;72660;51.258;-2.200;2023-09-19T06:37:06;3;3;
82886;PMS5003;72660;51.258;-2.200;2023-09-19T06:39:31;5;5;
82886;PMS5003;72660;51.258;-2.200;2023-09-19T06:41:56;1;1;
82886;PMS5003;72660;51.258;-2.200;2023-09-19T06:44:22;2;2;
82886;PMS5003;72660;51.258;-2.200;2023-09-19T06:46:47;5;4;
82886;PMS5003;72660;51.258;-2.200;2023-09-19T06:49:12;4;4;
82886;PMS5003;72660;51.258;-2.200;2023-09-19T06:51:38;5;5;
82886;PMS5003;72660;51.258;-2.200;2023-09-19T06:54:03;5;3;
82886;PMS5003;72660;51.258;-2.200;2023-09-19T06:56:28;3;2;
82886;PMS5003;72660;51.258;-2.200;2023-09-19T06:58:54;4;2;
82886;PMS5003;72660;51.258;-2.200;2023-09-19T07:01:19;5;3;
82886;PMS5003;72660;51.258;-2.200;2023-09-19T07:03:45;5;4;
82886;PMS5003;72660;51.258;-2.200;2023-09-19T07:06:10;3;3;
82886;PMS5003;72660;51.258;-2.200;2023-09-19T07:08:35;9;6;
82886;PMS5003;72660;51.258;-2.200;2023-09-19T07:11:00;8;5;
82886;PMS5003;72660;51.258;-2.200;2023-09-19T07:13:26;10;8;
82886;PMS5003;72660;51.258;-2.200;2023-09-19T07:15:51;6;6;
82886;PMS5003;72660;51.258;-2.200;2023-09-19T07:18:16;5;5;
82886;PMS5003;72660;51.258;-2.200;2023-09-19T07:20:41;5;5;
82886;PMS5003;72660;51.258;-2.200;2023-09-19T07:23:07;5;4;
82886;PMS5003;72660;51.258;-2.200;2023-09-19T07:25:34;9;7;
82886;PMS5003;72660;51.258;-2.200;2023-09-19T07:27:58;5;5;
82886;PMS5003;72660;51.258;-2.200;2023-09-19T07:30:23;6;6;
82886;PMS5003;72660;51.258;-2.200;2023-09-19T07:32:48;3;3;
82886;PMS5003;72660;51.258;-2.200;2023-09-19T07:35:14;8;6;
82886;PMS5003;72660;51.258;-2.200;2023-09-19T07:37:39;7;7;
82886;PMS5003;72660;51.258;-2.200;2023-09-19T07:40:05;6;4;
82886;PMS5003;72660;51.258;-2.200;2023-09-19T07:42:30;5;5;
82886;PMS5003;72660;51.258;-2.200;2023-09-19T07:44:55;4;4;
82886;PMS5003;72660;51.258;-2.200;2023-09-19T07:47:21;8;7;
82886;PMS5003;72660;51.258;-2.200;2023-09-19T07:49:47;6;5;
82886;PMS5003;72660;51.258;-2.200;2023-09-19T07:52:12;5;4;
82886;PMS5003;72660;51.258;-2.200;2023-09-19T07:54:37;5;5;
82886;PMS5003;72660;51.258;-2.200;2023-09-19T07:57:03;11;6;
82886;PMS5003;72660;51.258;-2.200;2023-09-19T07:59:28;6;6;
82886;PMS5003;72660;51.258;-2.200;2023-09-19T08:01:53;4;3;
82886;PMS5003;72660;51.258;-2.200;2023-09-19T08:04:18;3;3;
82886;PMS5003;72660;51.258;-2.200;2023-09-19T08:06:43;8;6;
82886;PMS5003;72660;51.258;-2.200;2023-09-19T08:09:09;6;5;
82886;PMS5003;72660;51.258;-2.200;2023-09-19T08:11:35;7;5;
82886;PMS5003;72660;51.258;-2.200;2023-09-19T08:14:00;6;6;
82886;PMS5003;72660;51.258;-2.200;2023-09-19T08:16:26;6;6;
82886;PMS5003;72660;51.258;-2.200;2023-09-19T08:18:50;5;5;
82886;PMS5003;72660;51.258;-2.200;2023-09-19T08:21:17;6;5;
82886;PMS5003;72660;51.258;-2.200;2023-09-19T08:23:41;6;5;
82886;PMS5003;72660;51.258;-2.200;2023-09-19T08:26:07;7;3;
82886;PMS5003;72660;51.258;-2.200;2023-09-19T08:28:32;7;4;
82886;PMS5003;72660;51.258;-2.200;2023-09-19T08:31:01;8;7;
82886;PMS5003;72660;51.258;-2.200;2023-09-19T08:33:24;5;5;
82886;PMS5003;72660;51.258;-2.200;2023-09-19T08:35:49;6;5;
82886;PMS5003;72660;51.258;-2.200;2023-09-19T08:38:15;8;6;
82886;PMS5003;72660;51.258;-2.200;2023-09-19T08:40:40;4;4;
82886;PMS5003;72660;51.258;-2.200;2023-09-19T08:43:06;9;8;
82886;PMS5003;72660;51.258;-2.200;2023-09-19T08:45:31;6;5;
82886;PMS5003;72660;51.258;-2.200;2023-09-19T08:47:59;7;6;
82886;PMS5003;72660;51.258;-2.200;2023-09-19T08:50:23;10;7;
82886;PMS5003;72660;51.258;-2.200;2023-09-19T08:52:47;9;8;
82886;PMS5003;72660;51.258;-2.200;2023-09-19T08:55:12;6;4;
82886;PMS5003;72660;51.258;-2.200;2023-09-19T08:57:38;9;7;
82886;PMS5003;72660;51.258;-2.200;2023-09-19T09:00:03;4;4;
82886;PMS5003;72660;51.258;-2.200;2023-09-19T09:02:28;6;4;
82886;PMS5003;72660;51.258;-2.200;2023-09-19T09:04:53;9;5;
82886;PMS5003;72660;51.258;-2.200;2023-09-19T09:07:18;5;5;
82886;PMS5003;72660;51.258;-2.200;2023-09-19T09:09:44;6;5;
82886;PMS5003;72660;51.258;-2.200;2023-09-19T09:12:11;10;6;
82886;PMS5003;72660;51.258;-2.200;2023-09-19T09:14:35;11;6;
82886;PMS5003;72660;51.258;-2.200;2023-09-19T09:17:00;5;5;
82886;PMS5003;72660;51.258;-2.200;2023-09-19T09:19:26;10;5;
82886;PMS5003;72660;51.258;-2.200;2023-09-19T09:21:51;7;6;
82886;PMS5003;72660;51.258;-2.200;2023-09-19T09:26:41;9;5;
82886;PMS5003;72660;51.258;-2.200;2023-09-19T09:29:07;6;5;
82886;PMS5003;72660;51.258;-2.200;2023-09-19T09:31:32;4;4;
82886;PMS5003;72660;51.258;-2.200;2023-09-19T09:33:58;6;6;
82886;PMS5003;72660;51.258;-2.200;2023-09-19T09:38:48;4;4;
82886;PMS5003;72660;51.258;-2.200;2023-09-19T09:41:14;6;6;
82886;PMS5003;72660;51.258;-2.200;2023-09-19T09:43:39;5;5;
82886;PMS5003;72660;51.258;-2.200;2023-09-19T09:46:08;2;2;
82886;PMS5003;72660;51.258;-2.200;2023-09-19T09:48:29;6;4;
82886;PMS5003;72660;51.258;-2.200;2023-09-19T09:50:54;6;5;
82886;PMS5003;72660;51.258;-2.200;2023-09-19T09:53:20;4;4;
82886;PMS5003;72660;51.258;-2.200;2023-09-19T09:58:15;4;4;
82886;PMS5003;72660;51.258;-2.200;2023-09-19T10:00:35;5;5;
82886;PMS5003;72660;51.258;-2.200;2023-09-19T10:03:01;5;5;
82886;PMS5003;72660;51.258;-2.200;2023-09-19T10:05:26;6;4;
82886;PMS5003;72660;51.258;-2.200;2023-09-19T10:07:52;2;2;
82886;PMS5003;72660;51.258;-2.200;2023-09-19T10:12:44;4;2;
82886;PMS5003;72660;51.258;-2.200;2023-09-19T10:15:08;5;3;
82886;PMS5003;72660;51.258;-2.200;2023-09-19T10:17:34;4;4;
82886;PMS5003;72660;51.258;-2.200;2023-09-19T10:19:59;7;4;
82886;PMS5003;72660;51.258;-2.200;2023-09-19T10:22:24;3;2;
82886;PMS5003;72660;51.258;-2.200;2023-09-19T10:24:49;4;4;
82886;PMS5003;72660;51.258;-2.200;2023-09-19T10:27:15;5;2;
82886;PMS5003;72660;51.258;-2.200;2023-09-19T10:29:40;3;2;
82886;PMS5003;72660;51.258;-2.200;2023-09-19T10:32:06;4;4;
82886;PMS5003;72660;51.258;-2.200;2023-09-19T10:34:31;4;4;
82886;PMS5003;72660;51.258;-2.200;2023-09-19T10:36:56;3;1;
82886;PMS5003;72660;51.258;-2.200;2023-09-19T10:39:21;4;2;
82886;PMS5003;72660;51.258;-2.200;2023-09-19T10:41:49;2;1;
82886;PMS5003;72660;51.258;-2.200;2023-09-19T10:44:12;4;3;
82886;PMS5003;72660;51.258;-2.200;2023-09-19T10:46:37;4;2;
82886;PMS5003;72660;51.258;-2.200;2023-09-19T10:49:03;3;3;
82886;PMS5003;72660;51.258;-2.200;2023-09-19T10:51:29;3;3;
82886;PMS5003;72660;51.258;-2.200;2023-09-19T10:53:54;2;1;
82886;PMS5003;72660;51.258;-2.200;2023-09-19T10:56:21;3;3;
82886;PMS5003;72660;51.258;-2.200;2023-09-19T10:58:44;1;1;
82886;PMS5003;72660;51.258;-2.200;2023-09-19T11:01:09;3;3;
82886;PMS5003;72660;51.258;-2.200;2023-09-19T11:03:34;2;2;
82886;PMS5003;72660;51.258;-2.200;2023-09-19T11:06:01;4;1;
82886;PMS5003;72660;51.258;-2.200;2023-09-19T11:08:24;3;3;
82886;PMS5003;72660;51.258;-2.200;2023-09-19T11:10:50;1;1;
82886;PMS5003;72660;51.258;-2.200;2023-09-19T11:18:08;0;0;
82886;PMS5003;72660;51.258;-2.200;2023-09-19T11:20:30;4;3;
82886;PMS5003;72660;51.258;-2.200;2023-09-19T11:35:06;1;1;
82886;PMS5003;72660;51.258;-2.200;2023-09-19T11:44:43;1;0;
82886;PMS5003;72660;51.258;-2.200;2023-09-19T11:47:08;2;1;
82886;PMS5003;72660;51.258;-2.200;2023-09-19T11:49:34;2;2;
82886;PMS5003;72660;51.258;-2.200;2023-09-19T11:51:59;1;1;
82886;PMS5003;72660;51.258;-2.200;2023-09-19T11:54:24;0;0;
82886;PMS5003;72660;51.258;-2.200;2023-09-19T11:56:50;2;1;
82886;PMS5003;72660;51.258;-2.200;2023-09-19T11:59:19;1;1;
82886;PMS5003;72660;51.258;-2.200;2023-09-19T12:01:42;1;1;
82886;PMS5003;72660;51.258;-2.200;2023-09-19T12:04:05;2;1;
82886;PMS5003;72660;51.258;-2.200;2023-09-19T12:06:30;1;1;
82886;PMS5003;72660;51.258;-2.200;2023-09-19T12:08:55;1;1;
82886;PMS5003;72660;51.258;-2.200;2023-09-19T12:11:21;1;1;
82886;PMS5003;72660;51.258;-2.200;2023-09-19T12:13:46;1;0;
82886;PMS5003;72660;51.258;-2.200;2023-09-19T12:16:14;1;1;
82886;PMS5003;72660;51.258;-2.200;2023-09-19T12:18:36;1;1;
82886;PMS5003;72660;51.258;-2.200;2023-09-19T12:21:01;2;0;
82886;PMS5003;72660;51.258;-2.200;2023-09-19T12:23:26;1;1;
82886;PMS5003;72660;51.258;-2.200;2023-09-19T12:25:51;1;1;
82886;PMS5003;72660;51.258;-2.200;2023-09-19T12:28:16;1;1;
82886;PMS5003;72660;51.258;-2.200;2023-09-19T12:30:42;2;1;
82886;PMS5003;72660;51.258;-2.200;2023-09-19T12:35:32;0;0;
82886;PMS5003;72660;51.258;-2.200;2023-09-19T12:37:57;0;0;
82886;PMS5003;72660;51.258;-2.200;2023-09-19T12:40:22;0;0;
82886;PMS5003;72660;51.258;-2.200;2023-09-19T12:42:48;0;0;
82886;PMS5003;72660;51.258;-2.200;2023-09-19T12:45:12;1;1;
82886;PMS5003;72660;51.258;-2.200;2023-09-19T12:47:37;1;1;
82886;PMS5003;72660;51.258;-2.200;2023-09-19T12:50:08;0;0;
82886;PMS5003;72660;51.258;-2.200;2023-09-19T12:54:53;2;1;
82886;PMS5003;72660;51.258;-2.200;2023-09-19T12:57:23;1;1;
82886;PMS5003;72660;51.258;-2.200;2023-09-19T12:59:43;3;1;
82886;PMS5003;72660;51.258;-2.200;2023-09-19T13:02:08;1;1;
82886;PMS5003;72660;51.258;-2.200;2023-09-19T13:04:34;0;0;
82886;PMS5003;72660;51.258;-2.200;2023-09-19T13:06:59;1;1;
82886;PMS5003;72660;51.258;-2.200;2023-09-19T13:09:24;2;1;
82886;PMS5003;72660;51.258;-2.200;2023-09-19T13:11:49;1;1;
82886;PMS5003;72660;51.258;-2.200;2023-09-19T13:14:15;1;1;
82886;PMS5003;72660;51.258;-2.200;2023-09-19T13:19:05;0;0;
82886;PMS5003;72660;51.258;-2.200;2023-09-19T13:21:31;1;1;
82886;PMS5003;72660;51.258;-2.200;2023-09-19T13:23:55;0;0;
82886;PMS5003;72660;51.258;-2.200;2023-09-19T13:26:20;1;1;
82886;PMS5003;72660;51.258;-2.200;2023-09-19T13:28:45;1;1;
82886;PMS5003;72660;51.258;-2.200;2023-09-19T13:31:10;2;0;
82886;PMS5003;72660;51.258;-2.200;2023-09-19T13:33:42;1;1;
82886;PMS5003;72660;51.258;-2.200;2023-09-19T13:36:01;0;0;
82886;PMS5003;72660;51.258;-2.200;2023-09-19T13:38:27;0;0;
82886;PMS5003;72660;51.258;-2.200;2023-09-19T13:40:52;0;0;
82886;PMS5003;72660;51.258;-2.200;2023-09-19T13:43:17;0;0;
82886;PMS5003;72660;51.258;-2.200;2023-09-19T13:45:42;1;1;
82886;PMS5003;72660;51.258;-2.200;2023-09-19T13:48:07;0;0;
82886;PMS5003;72660;51.258;-2.200;2023-09-19T13:50:32;2;2;
82886;PMS5003;72660;51.258;-2.200;2023-09-19T13:52:57;2;2;
82886;PMS5003;72660;51.258;-2.200;2023-09-19T13:55:23;3;2;
82886;PMS5003;72660;51.258;-2.200;2023-09-19T13:57:48;2;2;
82886;PMS5003;72660;51.258;-2.200;2023-09-19T14:00:13;1;1;
82886;PMS5003;72660;51.258;-2.200;2023-09-19T14:02:38;2;2;
82886;PMS5003;72660;51.258;-2.200;2023-09-19T14:05:04;3;1;
82886;PMS5003;72660;51.258;-2.200;2023-09-19T14:07:29;3;3;
82886;PMS5003;72660;51.258;-2.200;2023-09-19T14:09:54;1;1;
82886;PMS5003;72660;51.258;-2.200;2023-09-19T14:12:20;2;2;
82886;PMS5003;72660;51.258;-2.200;2023-09-19T14:14:46;1;1;
82886;PMS5003;72660;51.258;-2.200;2023-09-19T14:17:11;1;1;
82886;PMS5003;72660;51.258;-2.200;2023-09-19T14:19:36;3;1;
82886;PMS5003;72660;51.258;-2.200;2023-09-19T14:22:01;3;1;
82886;PMS5003;72660;51.258;-2.200;2023-09-19T14:24:26;2;1;
82886;PMS5003;72660;51.258;-2.200;2023-09-19T14:26:51;1;1;
82886;PMS5003;72660;51.258;-2.200;2023-09-19T14:29:16;1;1;
82886;PMS5003;72660;51.258;-2.200;2023-09-19T14:31:41;3;1;
82886;PMS5003;72660;51.258;-2.200;2023-09-19T14:34:07;3;2;
82886;PMS5003;72660;51.258;-2.200;2023-09-19T14:36:33;2;2;
82886;PMS5003;72660;51.258;-2.200;2023-09-19T14:38:57;3;2;
82886;PMS5003;72660;51.258;-2.200;2023-09-19T14:41:23;2;2;
82886;PMS5003;72660;51.258;-2.200;2023-09-19T14:43:48;4;1;
82886;PMS5003;72660;51.258;-2.200;2023-09-19T14:46:13;1;1;
82886;PMS5003;72660;51.258;-2.200;2023-09-19T14:48:39;1;1;
82886;PMS5003;72660;51.258;-2.200;2023-09-19T14:51:04;2;1;
82886;PMS5003;72660;51.258;-2.200;2023-09-19T14:53:29;0;0;
82886;PMS5003;72660;51.258;-2.200;2023-09-19T14:55:55;2;2;
82886;PMS5003;72660;51.258;-2.200;2023-09-19T14:58:20;0;0;
82886;PMS5003;72660;51.258;-2.200;2023-09-19T15:00:45;2;2;
82886;PMS5003;72660;51.258;-2.200;2023-09-19T15:03:10;3;2;
82886;PMS5003;72660;51.258;-2.200;2023-09-19T15:05:35;3;1;
82886;PMS5003;72660;51.258;-2.200;2023-09-19T15:08:00;1;1;
82886;PMS5003;72660;51.258;-2.200;2023-09-19T15:10:26;8;7;
82886;PMS5003;72660;51.258;-2.200;2023-09-19T15:12:51;1;1;
82886;PMS5003;72660;51.258;-2.200;2023-09-19T15:15:16;1;1;
82886;PMS5003;72660;51.258;-2.200;2023-09-19T15:17:41;1;1;
82886;PMS5003;72660;51.258;-2.200;2023-09-19T15:20:07;3;3;
82886;PMS5003;72660;51.258;-2.200;2023-09-19T15:22:32;1;1;
82886;PMS5003;72660;51.258;-2.200;2023-09-19T15:24:57;1;1;
82886;PMS5003;72660;51.258;-2.200;2023-09-19T15:27:23;3;3;
82886;PMS5003;72660;51.258;-2.200;2023-09-19T15:29:48;4;3;
82886;PMS5003;72660;51.258;-2.200;2023-09-19T15:32:13;3;3;
82886;PMS5003;72660;51.258;-2.200;2023-09-19T15:34:38;4;4;
82886;PMS5003;72660;51.258;-2.200;2023-09-19T15:37:03;3;3;
82886;PMS5003;72660;51.258;-2.200;2023-09-19T15:39:30;3;1;
82886;PMS5003;72660;51.258;-2.200;2023-09-19T15:41:54;3;2;
82886;PMS5003;72660;51.258;-2.200;2023-09-19T15:44:19;4;4;
82886;PMS5003;72660;51.258;-2.200;2023-09-19T15:46:45;5;3;
82886;PMS5003;72660;51.258;-2.200;2023-09-19T15:49:10;5;3;
82886;PMS5003;72660;51.258;-2.200;2023-09-19T15:51:35;5;5;
82886;PMS5003;72660;51.258;-2.200;2023-09-19T15:54:00;5;5;
82886;PMS5003;72660;51.258;-2.200;2023-09-19T15:56:25;2;2;
82886;PMS5003;72660;51.258;-2.200;2023-09-19T15:58:51;5;2;
82886;PMS5003;72660;51.258;-2.200;2023-09-19T16:01:16;1;1;
82886;PMS5003;72660;51.258;-2.200;2023-09-19T16:03:43;3;3;
82886;PMS5003;72660;51.258;-2.200;2023-09-19T16:06:08;4;2;
82886;PMS5003;72660;51.258;-2.200;2023-09-19T16:08:31;2;2;
82886;PMS5003;72660;51.258;-2.200;2023-09-19T16:10:57;2;2;
82886;PMS5003;72660;51.258;-2.200;2023-09-19T16:13:22;0;0;
82886;PMS5003;72660;51.258;-2.200;2023-09-19T16:15:47;2;0;
82886;PMS5003;72660;51.258;-2.200;2023-09-19T16:18:12;1;1;
82886;PMS5003;72660;51.258;-2.200;2023-09-19T16:20:37;2;2;
82886;PMS5003;72660;51.258;-2.200;2023-09-19T16:23:02;2;2;
82886;PMS5003;72660;51.258;-2.200;2023-09-19T16:25:28;2;2;
82886;PMS5003;72660;51.258;-2.200;2023-09-19T16:27:53;1;1;
82886;PMS5003;72660;51.258;-2.200;2023-09-19T16:30:18;3;1;
82886;PMS5003;72660;51.258;-2.200;2023-09-19T16:32:43;0;0;
82886;PMS5003;72660;51.258;-2.200;2023-09-19T16:35:08;2;2;
82886;PMS5003;72660;51.258;-2.200;2023-09-19T16:37:33;2;2;
82886;PMS5003;72660;51.258;-2.200;2023-09-19T16:39:58;2;2;
82886;PMS5003;72660;51.258;-2.200;2023-09-19T16:42:24;1;1;
82886;PMS5003;72660;51.258;-2.200;2023-09-19T16:44:49;0;0;
82886;PMS5003;72660;51.258;-2.200;2023-09-19T16:47:15;4;4;
82886;PMS5003;72660;51.258;-2.200;2023-09-19T16:49:40;2;2;
82886;PMS5003;72660;51.258;-2.200;2023-09-19T16:52:05;1;1;
82886;PMS5003;72660;51.258;-2.200;2023-09-19T16:54:31;1;1;
82886;PMS5003;72660;51.258;-2.200;2023-09-19T16:56:56;3;3;
82886;PMS5003;72660;51.258;-2.200;2023-09-19T16:59:21;1;1;
82886;PMS5003;72660;51.258;-2.200;2023-09-19T17:01:46;2;2;
82886;PMS5003;72660;51.258;-2.200;2023-09-19T17:04:11;4;2;
82886;PMS5003;72660;51.258;-2.200;2023-09-19T17:06:36;2;2;
82886;PMS5003;72660;51.258;-2.200;2023-09-19T17:09:02;5;1;
82886;PMS5003;72660;51.258;-2.200;2023-09-19T17:11:27;2;0;